Atwater, Illinois
Current Conditions -  °F | °C
As of 1:55 AM on Friday 24 Oct 2014 (Local Time) from K3LF Reporting Station
Broken Clouds Broken Clouds  
Wind Chill: 52°   Ceiling: 3900
Heat Index: 52°   Visibility: 10mi
Dew Point: 45°   Wind: 5mph
Humidity: 79%   Direction: 180°S
Pressure: 30.08"   Gusts: NA
Location:  39.33°N, 89.72°W
Report Text: K3LF 240655Z AUTO 18004KT 10SM BKN039 11/07 A3008 RMK AO2 T01090073
Loading
Personal Weather Stations






























Interactive Weather Map
Tropical Storm Tracking
New forecast layout! Learn more

10-Day Weather Forecast

Advertisements
Track Severe Weather on mobile